| time (UTC) | temp C | wind direction | speed KPH | gust KPH | rain 1hr cm | rain 24hr cm | rain mn cm | humidity % | barometer mb |
| 20260507023019 | 13 | 345 | 0.0 | 0.0 | 0.00 | 0.05 | 0.05 | 87 | 1013.6 |
| 20260507021520 | 13 | 345 | 0.0 | 0.0 | 0.00 | 0.05 | 0.05 | 86 | 1013.2 |
| 20260507020017 | 13 | 345 | 0.0 | 0.0 | 0.00 | 0.05 | 0.05 | 85 | 1013.2 |
| 20260507014519 | 14 | 345 | 0.0 | 0.0 | 0.00 | 0.05 | 0.05 | 85 | 1012.7 |
| 20260507013013 | 14 | 345 | 0.0 | 0.0 | 0.00 | 0.05 | 0.05 | 84 | 1012.3 |
| 20260507011512 | 15 | 345 | 0.0 | 0.0 | 0.00 | 0.05 | 0.05 | 83 | 1012.1 |
| 20260507010011 | 15 | 345 | 1.6 | 4.8 | 0.00 | 0.05 | 0.05 | 82 | 1011.8 |
| 20260507004515 | 15 | 345 | 1.6 | 4.8 | 0.00 | 0.05 | 0.05 | 81 | 1011.7 |
| 20260507003010 | 15 | 345 | 1.6 | 6.4 | 0.00 | 0.05 | 0.05 | 81 | 1011.7 |
| 20260507001510 | 15 | 345 | 1.6 | 6.4 | 0.00 | 0.05 | 0.05 | 80 | 1011.6 |
| 20260507000009 | 15 | 345 | 4.8 | 8.0 | 0.00 | 0.05 | 0.05 | 79 | 1011.6 |
| 20260506234506 | 15 | 345 | 4.8 | 8.0 | 0.00 | 0.05 | 0.05 | 79 | 1011.5 |
| 20260506233005 | 15 | 345 | 4.8 | 9.7 | 0.00 | 0.05 | 0.05 | 79 | 1011.4 |
| 20260506231504 | 15 | 344 | 3.2 | 8.0 | 0.00 | 0.05 | 0.05 | 80 | 1011.2 |
| 20260506230004 | 15 | 344 | 4.8 | 9.7 | 0.00 | 0.05 | 0.05 | 79 | 1011.2 |
| 20260506224504 | 15 | 344 | 3.2 | 8.0 | 0.00 | 0.05 | 0.05 | 79 | 1011.0 |
| 20260506223003 | 15 | 344 | 3.2 | 9.7 | 0.00 | 0.05 | 0.05 | 80 | 1010.6 |
| 20260506221502 | 16 | 344 | 3.2 | 16.1 | 0.00 | 0.05 | 0.05 | 79 | 1010.6 |
| 20260506220005 | 16 | 355 | 4.8 | 12.9 | 0.00 | 0.05 | 0.05 | 79 | 1010.5 |
| 20260506214604 | 15 | 355 | 6.4 | 12.9 | 0.00 | 0.05 | 0.05 | 79 | 1010.9 |
| 20260506213001 | 16 | 348 | 4.8 | 12.9 | 0.00 | 0.05 | 0.05 | 79 | 1010.9 |
| 20260506211601 | 15 | 349 | 6.4 | 12.9 | 0.00 | 0.05 | 0.05 | 79 | 1010.8 |
| 20260506210059 | 15 | 350 | 3.2 | 9.7 | 0.00 | 0.05 | 0.05 | 80 | 1011.3 |
| 20260506204559 | 15 | 350 | 1.6 | 8.0 | 0.00 | 0.05 | 0.05 | 81 | 1011.1 |
| 20260506203059 | 14 | 349 | 3.2 | 14.5 | 0.00 | 0.05 | 0.05 | 81 | 1011.0 |
| 20260506201558 | 14 | 355 | 6.4 | 12.9 | 0.00 | 0.05 | 0.05 | 82 | 1011.3 |
| 20260506200057 | 13 | 348 | 4.8 | 14.5 | 0.00 | 0.05 | 0.05 | 83 | 1011.6 |
| 20260506194628 | 13 | 349 | 3.2 | 12.9 | 0.00 | 0.05 | 0.05 | 84 | 1011.7 |
| 20260506193104 | 12 | 350 | 3.2 | 16.1 | 0.00 | 0.05 | 0.05 | 84 | 1011.8 |
| 20260506191555 | 12 | 347 | 4.8 | 12.9 | 0.00 | 0.05 | 0.05 | 86 | 1011.6 |
| 20260506190057 | 12 | 350 | 4.8 | 14.5 | 0.00 | 0.05 | 0.05 | 85 | 1011.7 |
| 20260506184554 | 12 | 339 | 6.4 | 14.5 | 0.00 | 0.05 | 0.05 | 86 | 1011.8 |
| 20260506183054 | 12 | 347 | 6.4 | 17.7 | 0.00 | 0.05 | 0.05 | 86 | 1012.0 |
| 20260506181553 | 12 | 344 | 4.8 | 16.1 | 0.00 | 0.05 | 0.05 | 86 | 1012.0 |
| 20260506174553 | 12 | 349 | 1.6 | 6.4 | 0.00 | 0.05 | 0.05 | 87 | 1012.2 |
| 20260506173056 | 12 | 349 | 4.8 | 12.9 | 0.00 | 0.05 | 0.05 | 87 | 1012.2 |
| 20260506171557 | 12 | 355 | 6.4 | 12.9 | 0.00 | 0.05 | 0.05 | 87 | 1011.9 |
| 20260506170103 | 12 | 349 | 8.0 | 17.7 | 0.00 | 0.05 | 0.05 | 87 | 1010.6 |
| 20260506164551 | 11 | 338 | 8.0 | 14.5 | 0.00 | 0.05 | 0.05 | 88 | 1010.6 |
| 20260506163109 | 11 | 316 | 6.4 | 16.1 | 0.00 | 0.05 | 0.05 | 88 | 1010.9 |
| 20260506161548 | 11 | 355 | 8.0 | 16.1 | 0.00 | 0.05 | 0.05 | 88 | 1010.7 |
| 20260506160047 | 11 | 351 | 11.3 | 19.3 | 0.00 | 0.05 | 0.05 | 89 | 1010.7 |
| 20260506154606 | 10 | 349 | 6.4 | 12.9 | 0.03 | 0.05 | 0.05 | 89 | 1011.0 |
| 20260506153054 | 10 | 341 | 4.8 | 16.1 | 0.03 | 0.05 | 0.05 | 89 | 1010.8 |
| 20260506151547 | 10 | 341 | 11.3 | 19.3 | 0.05 | 0.05 | 0.05 | 88 | 1009.8 |
| 20260506150042 | 10 | 336 | 4.8 | 12.9 | 0.05 | 0.05 | 0.05 | 88 | 1010.6 |
| 20260506144539 | 10 | 360 | 4.8 | 16.1 | 0.03 | 0.03 | 0.03 | 86 | 1011.1 |
| 20260506143047 | 11 | 349 | 3.2 | 12.9 | 0.03 | 0.03 | 0.03 | 85 | 1011.5 |
| 20260506141538 | 11 | 350 | 4.8 | 19.3 | 0.00 | 0.00 | 0.00 | 84 | 1012.0 |
| 20260506140033 | 11 | 18 | 9.7 | 20.9 | 0.00 | 0.00 | 0.00 | 84 | 1011.3 |
| 20260506134530 | 11 | 347 | 6.4 | 14.5 | 0.00 | 0.00 | 0.00 | 84 | 1011.5 |
| 20260506133026 | 11 | 348 | 8.0 | 17.7 | 0.00 | 0.00 | 0.00 | 83 | 1010.6 |
| 20260506131521 | 12 | 350 | 6.4 | 17.7 | 0.00 | 0.00 | 0.00 | 83 | 1009.5 |
| 20260506130019 | 12 | 343 | 6.4 | 17.7 | 0.00 | 0.00 | 0.00 | 82 | 1009.9 |
| 20260506124516 | 12 | 349 | 4.8 | 14.5 | 0.00 | 0.00 | 0.00 | 83 | 1009.2 |
| 20260506123014 | 12 | 351 | 6.4 | 19.3 | 0.00 | 0.00 | 0.00 | 83 | 1008.9 |
| 20260506121510 | 12 | 351 | 6.4 | 17.7 | 0.00 | 0.00 | 0.00 | 83 | 1008.6 |
| 20260506120008 | 13 | 350 | 8.0 | 17.7 | 0.00 | 0.00 | 0.00 | 83 | 1008.3 |
| 20260506114509 | 13 | 348 | 6.4 | 14.5 | 0.00 | 0.00 | 0.00 | 82 | 1008.4 |
| 20260506113003 | 13 | 345 | 4.8 | 14.5 | 0.00 | 0.00 | 0.00 | 83 | 1008.3 |
| 20260506111600 | 13 | 355 | 8.0 | 17.7 | 0.00 | 0.00 | 0.00 | 83 | 1008.2 |
| 20260506104555 | 14 | 355 | 6.4 | 9.7 | 0.00 | 0.00 | 0.00 | 82 | 1007.5 |
| 20260506103052 | 14 | 355 | 6.4 | 9.7 | 0.00 | 0.00 | 0.00 | 82 | 1007.2 |
| 20260506101601 | 14 | 349 | 4.8 | 9.7 | 0.00 | 0.00 | 0.00 | 82 | 1007.2 |
| 20260506100049 | 15 | 351 | 6.4 | 12.9 | 0.00 | 0.00 | 0.00 | 82 | 1007.0 |
| 20260506094605 | 15 | 350 | 4.8 | 14.5 | 0.00 | 0.00 | 0.00 | 82 | 1006.6 |
| 20260506093052 | 15 | 355 | 6.4 | 9.7 | 0.00 | 0.00 | 0.00 | 81 | 1006.5 |
| 20260506091543 | 15 | 355 | 4.8 | 9.7 | 0.00 | 0.00 | 0.00 | 81 | 1006.5 |
| 20260506090042 | 15 | 355 | 6.4 | 12.9 | 0.00 | 0.00 | 0.00 | 82 | 1006.5 |
| 20260506084541 | 15 | 355 | 4.8 | 14.5 | 0.00 | 0.00 | 0.00 | 82 | 1006.3 |
| 20260506083040 | 15 | 355 | 4.8 | 16.1 | 0.00 | 0.00 | 0.00 | 82 | 1006.3 |
| 20260506081539 | 15 | 350 | 4.8 | 14.5 | 0.00 | 0.00 | 0.00 | 81 | 1006.3 |
| 20260506073029 | 16 | 355 | 3.2 | 8.0 | 0.00 | 0.00 | 0.00 | 81 | 1005.9 |
| 20260506071532 | 16 | 355 | 4.8 | 8.0 | 0.00 | 0.00 | 0.00 | 81 | 1005.7 |
| 20260506061529 | 17 | 355 | 4.8 | 12.9 | 0.00 | 0.00 | 0.00 | 78 | 1005.8 |
| 20260506044506 | 19 | 355 | 3.2 | 9.7 | 0.00 | 0.00 | 0.00 | 75 | 1005.6 |
| 20260506043006 | 20 | 355 | 4.8 | 14.5 | 0.00 | 0.00 | 0.00 | 75 | 1005.6 |
| 20260506041504 | 20 | 355 | 4.8 | 19.3 | 0.00 | 0.00 | 0.00 | 74 | 1005.5 |
| 20260506040002 | 20 | 350 | 4.8 | 14.5 | 0.00 | 0.00 | 0.00 | 74 | 1005.3 |
| 20260506034501 | 20 | 348 | 4.8 | 14.5 | 0.00 | 0.00 | 0.00 | 73 | 1005.4 |
| 20260506033100 | 20 | 360 | 3.2 | 9.7 | 0.00 | 0.00 | 0.00 | 73 | 1005.2 |
| 20260506031605 | 21 | 360 | 1.6 | 6.4 | 0.00 | 0.00 | 0.00 | 72 | 1004.7 |
| 20260506030055 | 21 | 360 | 3.2 | 8.0 | 0.00 | 0.00 | 0.00 | 72 | 1004.1 |
| 20260506024555 | 22 | 360 | 0.0 | 12.9 | 0.00 | 0.00 | 0.00 | 71 | 1003.9 |